Fairchild Air Force Base, WA (99011)

12:01 AM PDT on October 25, 2014 (GMT -0700)
Fairchild Air Force Base | Change Station
CLOSE
Current Station
Airport
Location: Spokane Fairchild,
Elevation: 2461 ft
Nearby Weather Stations
Active Advisory: Wind Advisory

Elev 2461 ft 47.62 °N, 117.66 °W | Updated 3 minutes ago

Mostly Cloudy
Mostly Cloudy
46 °F
Feels Like 40 °F
N
10
Wind Variable Wind from NE

Today
High -- | Low -- °F
--% Chance of Precip.
Yesterday
High -- | Low -- °F
Precip. -- in
7:24 AM 5:44 PM
New Moon, 2% visible
Pressure 29.96 in
Visibility 10.0 miles
Clouds Mostly Cloudy 18000 ft
Windchill 40 °F
Dew Point 43 °F
Humidity 90%
Rainfall 0.01 in
Snow Depth Not available.
UV 0 out of 12
Pollen 1.20 out of 12
PM2.5 Moderate
Flu Activity Sporadic
METAR KSKA 250658Z AUTO 04009KT 10SM BKN180 08/06 A2993 RMK AO2 SLP143 T00750060

More Conditions Fewer Conditions

Pressure 29.96 in
Visibility 10.0 miles
Clouds Mostly Cloudy 18000 ft
Windchill 40 °F
Dew Point 43 °F
Humidity 90%
Rainfall 0.01 in
Snow Depth Not available.
UV 0 out of 12
Pollen 1.20 out of 12
PM2.5 Moderate
Flu Activity Sporadic
METAR KSKA 250658Z AUTO 04009KT 10SM BKN180 08/06 A2993 RMK AO2 SLP143 T00750060

More Conditions Fewer Conditions

10-Day Weather Forecast

Almanac

Astronomy

Oct. 25, 2014 Rise Set
Actual Time 7:24 AM PDT 5:44 PM PDT
Civil Twilight 6:52 AM PDT 6:15 PM PDT
Nautical Twilight 6:16 AM PDT 6:51 PM PDT
Astronomical Twilight 5:40 AM PDT 7:27 PM PDT
Moon 9:13 AM PDT 7:04 PM PDT
Length of Visible Light 11h 23m
Length of Day
10h 19m
Tomorrow will be 3m 12s shorter.
New Moon, 2% of the Moon is Illuminated
Today
New Moon
Oct 30
First Quarter
Nov 6
Full
Nov 14
Last Quarter
Nov 22
New

Community

WunderPhotos

Upload Photos

1,764,789 photos uploaded!

Nearby

Air Quality

  Air Quality AQ Index Pollutant
Yesterday Good
PM10
Current Moderate
PM2.5
Friday Good
PM10
Friday Good
CO
Saturday Good
PM10
Saturday Good
CO
Sunday Good
PM10
Sunday Good
CO
Monday Good
PM10
Monday Good
CO

Snow Depth

Station Depth Elevation
Quartz Peak 1 in 4700 ft
Bunchgrass Meadow 0 in 5000 ft
Moses Mountain 0 in 5300 ft
Spruce Springs 1 in 5700 ft
Trough 1 in 5300 ft

Earthquake Activity

City Distance Mag. Time & Date
No recent earthquake activity has been reported nearby.
Minimum magnitude displayed is 2.5.

Coastal Water Temperatures

Place Temperature
No Stations Reporting

Nearby Weather Stations